メインページ
METAR-TAF:

METAR-TAF

空港 :

ナッソー, バハマ

リンデン・ピンドリング国際空港

緯度: 25-03N, 経度: 077-28W, 海抜: 3m

現時点の気象観測

当レポートは1時間3分前の21:00(UTC)に作成
東/北東の風 10kt
気温 27°C
湿度 70%
気圧 1024 hPa
視程10km以上
高度2000ftの雲は散在している
高度3500ftの千切れ雲あり

METAR: MYNN 192100Z 07010KT 9999 SCT020 BKN035 27/21 A3023

時間: 17:03 (22:03 UTC)

予報

当レポートは11時間13分前の10:50(UTC)に作成
予報は19日の 12時(UTC)から 20日の 12時(UTC)まで有効
の風 10kt
視程10km以上
高度2000ftの雲は散在している
確率 30%
19日の 16時(UTC)から 19日の 18時(UTC)まで
の風 10kt、最大20ktの突風を伴う
視程: 8000m
高度1500ftの雲は散在している
高度3000ftの雲は散在している
にわか雨
19日の 00Z時(UTC)から
の風 20kt
視程10km以上
高度2000ftの雲は散在している

TAF: MYNN 191050Z 1912/2012 09010KT 9999 SCT020 PROB30 1916/1918 10010G20KT 8000 SHRA SCT015 SCT030 FM1900Z 09020KT 9999 SCT020

4,000以上の空港の気象観測と天気予報(METAR報とTAF報)

利用可能な観測所は地図上に黄色い丸と赤い丸で示す。

丸の上にカーソルを重ねると観測所名を参照できる。

次にクリックすると気象観測と天気予報を参照できる。

マップの切り替え:黒色「×」印の緑ボタンをクリックして拡大、「-」印の緑ボタンをクリックして縮小、緑色の三角印をクリックして隣りの地図に切り替え


METAR-TAF: